Admiral Richard E. Bennis — WDB4785 — position and weather

sailwx.info

Track history (hours):
 
Tides and Currents Weather Stations Pressure Air Temp Water Temp Dewpoint Dewpoint Depression Visibility Wind Speed Wind Dir Waves Ship Positions

Admiral Richard E. Bennis

Owner: PORT IMPERIAL FERRY CORP, WEEHAWKEN, NJ. More information available from US FCC via Universal Licensing System and Coast Guard Vessel Documentation Center.

Last reported at 2014-Dec-18 02:17 UTC. Time now 2014-Dec-18 05:48 UTC.
Position N 41°11' W 073°55'.

Length 26 m.

Type: Passenger vessel. MMSI: 366902320.

Date/timePositionNaut miles runAvg speedWind from/ knotsBaromVisibWave heightAir tempDewpointWater temp
2014-Dec-18 02:17N 41°11' W 073°55'24 2.6
2014-Dec-17 17:23N 40°48' W 073°59'2 2.2
2014-Dec-17 16:33N 40°46' W 074°01'0 0.0
2014-Dec-17 15:33N 40°46' W 074°01'1 0.7
2014-Dec-17 14:34N 40°46' W 074°01'4 3.6
2014-Dec-17 13:34N 40°42' W 074°01'4 3.8
2014-Dec-17 12:33N 40°46' W 074°01'4 3.8
2014-Dec-17 11:34N 40°42' W 074°01'0 0.0
2014-Dec-17 00:33N 40°42' W 074°01'1 1.5
2014-Dec-16 23:34N 40°44' W 074°02'3 3.0
2014-Dec-16 22:33N 40°47' W 074°01'3 2.9
2014-Dec-16 21:34N 40°44' W 074°01'1 1.4
2014-Dec-16 20:33N 40°42' W 074°01'4 0.8
2014-Dec-16 15:19N 40°46' W 074°01'2 2.0
2014-Dec-16 14:34N 40°45' W 074°01'3 3.0
2014-Dec-16 13:34N 40°42' W 074°01'4 4.3
2014-Dec-16 12:34N 40°46' W 074°00'4 4.3
2014-Dec-16 11:34N 40°42' W 074°01'0 0.0
2014-Dec-16 00:33N 40°42' W 074°00'3 3.2
2014-Dec-15 23:34N 40°45' W 074°01'0 0.3
2014-Dec-15 22:33N 40°45' W 074°01'2 1.7
2014-Dec-15 21:33N 40°43' W 074°01'2 1.6
2014-Dec-15 20:34N 40°42' W 074°01'4 0.8
2014-Dec-15 15:25N 40°46' W 074°01'0 0.5
2014-Dec-15 14:33N 40°46' W 074°00'4 4.1
2014-Dec-15 13:34N 40°42' W 074°01'4 3.9
2014-Dec-15 12:33N 40°46' W 074°00'1 0.3
2014-Dec-15 10:33N 40°46' W 074°01'0 0.0
2014-Dec-15 09:33N 40°46' W 074°01'0 0.0
2014-Dec-15 08:33N 40°46' W 074°01'0 0.0
2014-Dec-15 07:33N 40°46' W 074°01'0 0.0
2014-Dec-15 06:33N 40°46' W 074°01'0 0.0
2014-Dec-15 05:33N 40°46' W 074°01'0 0.0
2014-Dec-15 04:33N 40°46' W 074°01'0 0.0
2014-Dec-15 03:33N 40°46' W 074°01'0 0.0
2014-Dec-15 02:33N 40°46' W 074°01'4 0.1
2014-Dec-13 00:34N 40°42' W 074°01'3 2.8
2014-Dec-12 23:34N 40°45' W 074°01'1 1.0
2014-Dec-12 22:33N 40°46' W 074°00'3 2.9
2014-Dec-12 21:34N 40°43' W 074°01'1 1.2
2014-Dec-12 20:33N 40°42' W 074°01'4 0.8
2014-Dec-12 15:23N 40°46' W 074°01'0 0.3
2014-Dec-12 14:33N 40°46' W 074°00'4 4.2
2014-Dec-12 13:33N 40°42' W 074°00'4 3.6
2014-Dec-12 12:34N 40°46' W 074°00'4 3.6
2014-Dec-12 11:34N 40°42' W 074°00'  
2014-Dec-08 19:33N 40°46' W 074°01'0 0.0
2014-Dec-08 18:34N 40°46' W 074°01'0 0.0
2014-Dec-08 17:33N 40°46' W 074°01'0 0.0
2014-Dec-08 16:34N 40°46' W 074°01'0 0.0
2014-Dec-08 15:34N 40°46' W 074°01'0 0.3
2014-Dec-08 14:34N 40°46' W 074°00'4 3.8
2014-Dec-08 13:33N 40°42' W 074°01'4 3.5
2014-Dec-08 12:33N 40°46' W 074°00'4 3.8
2014-Dec-08 11:34N 40°42' W 074°01'4 4.4
2014-Dec-08 10:33N 40°46' W 074°01'0 0.0
2014-Dec-08 09:33N 40°46' W 074°01'  
Track history (hours):
 
Tides and Currents Weather Stations Pressure Air Temp Water Temp Dewpoint Dewpoint Depression Visibility Wind Speed Wind Dir Waves Ship Positions

Admiral Richard E. Bennis

Owner: PORT IMPERIAL FERRY CORP, WEEHAWKEN, NJ. More information available from US FCC via Universal Licensing System and Coast Guard Vessel Documentation Center.

Last reported at 2014-Dec-18 02:17 UTC. Time now 2014-Dec-18 05:48 UTC.
Position N 41°11' W 073°55'.

Length 26 m.

Type: Passenger vessel. MMSI: 366902320.

Date/timePositionNaut miles runAvg speedWind from/ knotsBaromVisibWave heightAir tempDewpointWater temp
2014-Dec-18 02:17N 41°11' W 073°55'24 2.6
2014-Dec-17 17:23N 40°48' W 073°59'2 2.2
2014-Dec-17 16:33N 40°46' W 074°01'0 0.0
2014-Dec-17 15:33N 40°46' W 074°01'1 0.7
2014-Dec-17 14:34N 40°46' W 074°01'4 3.6
2014-Dec-17 13:34N 40°42' W 074°01'4 3.8
2014-Dec-17 12:33N 40°46' W 074°01'4 3.8
2014-Dec-17 11:34N 40°42' W 074°01'0 0.0
2014-Dec-17 00:33N 40°42' W 074°01'1 1.5
2014-Dec-16 23:34N 40°44' W 074°02'3 3.0
2014-Dec-16 22:33N 40°47' W 074°01'3 2.9
2014-Dec-16 21:34N 40°44' W 074°01'1 1.4
2014-Dec-16 20:33N 40°42' W 074°01'4 0.8
2014-Dec-16 15:19N 40°46' W 074°01'2 2.0
2014-Dec-16 14:34N 40°45' W 074°01'3 3.0
2014-Dec-16 13:34N 40°42' W 074°01'4 4.3
2014-Dec-16 12:34N 40°46' W 074°00'4 4.3
2014-Dec-16 11:34N 40°42' W 074°01'0 0.0
2014-Dec-16 00:33N 40°42' W 074°00'3 3.2
2014-Dec-15 23:34N 40°45' W 074°01'0 0.3
2014-Dec-15 22:33N 40°45' W 074°01'2 1.7
2014-Dec-15 21:33N 40°43' W 074°01'2 1.6
2014-Dec-15 20:34N 40°42' W 074°01'4 0.8
2014-Dec-15 15:25N 40°46' W 074°01'0 0.5
2014-Dec-15 14:33N 40°46' W 074°00'4 4.1
2014-Dec-15 13:34N 40°42' W 074°01'4 3.9
2014-Dec-15 12:33N 40°46' W 074°00'1 0.3
2014-Dec-15 10:33N 40°46' W 074°01'0 0.0
2014-Dec-15 09:33N 40°46' W 074°01'0 0.0
2014-Dec-15 08:33N 40°46' W 074°01'0 0.0
2014-Dec-15 07:33N 40°46' W 074°01'0 0.0
2014-Dec-15 06:33N 40°46' W 074°01'0 0.0
2014-Dec-15 05:33N 40°46' W 074°01'0 0.0
2014-Dec-15 04:33N 40°46' W 074°01'0 0.0
2014-Dec-15 03:33N 40°46' W 074°01'0 0.0
2014-Dec-15 02:33N 40°46' W 074°01'4 0.1
2014-Dec-13 00:34N 40°42' W 074°01'3 2.8
2014-Dec-12 23:34N 40°45' W 074°01'1 1.0
2014-Dec-12 22:33N 40°46' W 074°00'3 2.9
2014-Dec-12 21:34N 40°43' W 074°01'1 1.2
2014-Dec-12 20:33N 40°42' W 074°01'4 0.8
2014-Dec-12 15:23N 40°46' W 074°01'0 0.3
2014-Dec-12 14:33N 40°46' W 074°00'4 4.2
2014-Dec-12 13:33N 40°42' W 074°00'4 3.6
2014-Dec-12 12:34N 40°46' W 074°00'4 3.6
2014-Dec-12 11:34N 40°42' W 074°00'  
2014-Dec-08 19:33N 40°46' W 074°01'0 0.0
2014-Dec-08 18:34N 40°46' W 074°01'0 0.0
2014-Dec-08 17:33N 40°46' W 074°01'0 0.0
2014-Dec-08 16:34N 40°46' W 074°01'0 0.0
2014-Dec-08 15:34N 40°46' W 074°01'0 0.3
2014-Dec-08 14:34N 40°46' W 074°00'4 3.8
2014-Dec-08 13:33N 40°42' W 074°01'4 3.5
2014-Dec-08 12:33N 40°46' W 074°00'4 3.8
2014-Dec-08 11:34N 40°42' W 074°01'4 4.4
2014-Dec-08 10:33N 40°46' W 074°01'0 0.0
2014-Dec-08 09:33N 40°46' W 074°01'  

Dump ship's entire track history